createdAt,value
2022-09-11T06:42:42.571Z,1.20
2022-09-11T06:45:10.466Z,1.10
2022-09-11T06:47:37.510Z,1.60
2022-09-11T06:50:04.686Z,1.50
2022-09-11T06:52:37.242Z,1.30
2022-09-11T06:55:33.476Z,0.90
2022-09-11T06:58:04.936Z,1.00
2022-09-11T07:00:31.772Z,1.00
2022-09-11T07:02:58.538Z,1.50
2022-09-11T07:05:25.842Z,1.20
2022-09-11T07:07:53.186Z,1.20
2022-09-11T07:10:20.025Z,1.10
2022-09-11T07:12:52.846Z,1.10
2022-09-11T07:15:19.548Z,1.00
2022-09-11T07:17:48.546Z,1.10
2022-09-11T07:20:15.449Z,1.30
2022-09-11T07:22:45.478Z,1.40
2022-09-11T07:25:13.106Z,1.00
2022-09-11T07:27:41.296Z,1.10
2022-09-11T07:30:09.797Z,1.30
2022-09-11T07:32:38.305Z,1.40
2022-09-11T07:35:05.348Z,1.30
2022-09-11T07:37:32.062Z,1.40
2022-09-11T07:39:58.834Z,1.30
2022-09-11T07:42:29.022Z,1.30
2022-09-11T07:44:56.924Z,1.20
2022-09-11T07:47:23.727Z,1.80
2022-09-11T07:49:51.454Z,1.90
2022-09-11T07:52:21.145Z,1.80
2022-09-11T07:54:51.218Z,1.90
2022-09-11T07:57:19.369Z,1.80
2022-09-11T07:59:46.568Z,1.80
2022-09-11T08:02:13.500Z,1.50
2022-09-11T08:04:40.275Z,1.80
2022-09-11T08:07:07.054Z,1.90
2022-09-11T08:09:34.610Z,2.10
2022-09-11T08:12:03.014Z,1.90
2022-09-11T08:14:31.463Z,2.00
2022-09-11T08:17:04.490Z,2.40
2022-09-11T08:19:31.440Z,2.10
2022-09-11T08:22:00.721Z,2.70
2022-09-11T08:24:27.956Z,4.20
2022-09-11T08:26:57.814Z,4.10
2022-09-11T08:29:25.764Z,3.60
2022-09-11T08:31:52.720Z,5.30
2022-09-11T08:34:22.162Z,3.60
2022-09-11T08:36:50.901Z,2.60
2022-09-11T08:39:17.929Z,2.40
2022-09-11T08:41:49.223Z,2.80
2022-09-11T08:44:25.799Z,2.90
2022-09-11T08:46:59.489Z,2.10
2022-09-11T08:49:27.910Z,2.40
2022-09-11T08:52:00.099Z,2.10
2022-09-11T08:54:33.428Z,2.70
2022-09-11T08:57:35.079Z,3.00
2022-09-11T09:00:12.799Z,3.10
2022-09-11T09:02:50.922Z,2.50
2022-09-11T09:05:36.380Z,2.70
2022-09-11T09:08:26.124Z,2.90
2022-09-11T09:10:57.091Z,3.10
2022-09-11T09:13:39.495Z,3.20
2022-09-11T09:16:35.077Z,3.50
2022-09-11T09:19:05.162Z,3.40
2022-09-11T09:21:37.599Z,3.10
2022-09-11T09:24:05.949Z,3.30
2022-09-11T09:26:38.474Z,3.60
2022-09-11T09:29:10.150Z,3.60
2022-09-11T09:31:39.077Z,3.20
2022-09-11T09:34:17.593Z,3.10
2022-09-11T09:36:47.677Z,3.70
2022-09-11T09:39:15.844Z,3.90
2022-09-11T09:41:49.585Z,4.10
2022-09-11T09:44:42.891Z,4.10
2022-09-11T09:47:13.229Z,3.90
2022-09-11T09:49:40.009Z,3.90
2022-09-11T09:52:21.154Z,4.60
2022-09-11T09:54:54.335Z,4.80
2022-09-11T09:57:21.584Z,4.10
2022-09-11T10:00:09.084Z,4.60
2022-09-11T10:02:56.509Z,5.30
2022-09-11T10:05:33.028Z,4.90
2022-09-11T10:08:06.860Z,8.10
2022-09-11T10:10:38.148Z,26.50
2022-09-11T10:13:18.950Z,16.50
2022-09-11T10:15:48.438Z,8.60
2022-09-11T10:18:34.545Z,8.00
2022-09-11T10:21:26.105Z,5.60
2022-09-11T10:24:03.887Z,4.90
2022-09-11T10:26:39.605Z,16.80
2022-09-11T10:29:15.929Z,9.80
2022-09-11T10:31:49.120Z,8.60
2022-09-11T10:34:17.067Z,13.70
2022-09-11T10:36:55.597Z,20.60
2022-09-11T10:39:23.484Z,18.10
2022-09-11T10:41:50.396Z,12.20
2022-09-11T10:44:17.101Z,8.20
2022-09-11T10:46:45.214Z,8.70
2022-09-11T10:49:22.016Z,8.60
2022-09-11T10:52:19.339Z,8.80
2022-09-11T10:55:06.278Z,6.30
2022-09-11T10:57:52.069Z,9.50
2022-09-11T11:00:25.816Z,6.80
2022-09-11T11:03:00.268Z,5.90
2022-09-11T11:06:07.903Z,5.00
2022-09-11T11:08:46.234Z,5.70
2022-09-11T11:11:15.966Z,5.50
2022-09-11T11:14:24.170Z,6.60
2022-09-11T11:16:50.845Z,6.50
2022-09-11T11:19:51.632Z,4.80
2022-09-11T11:22:31.228Z,5.90
2022-09-11T11:25:43.292Z,4.90
2022-09-11T11:28:11.752Z,5.90
2022-09-11T11:31:00.948Z,5.50
2022-09-11T11:33:42.761Z,5.00
2022-09-11T11:36:15.413Z,4.70
2022-09-11T11:38:53.005Z,5.30
2022-09-11T11:41:28.155Z,4.40
2022-09-11T11:43:56.111Z,4.50
2022-09-11T11:46:38.878Z,4.50
2022-09-11T11:49:33.887Z,3.90
2022-09-11T11:52:02.584Z,5.30
2022-09-11T11:54:32.990Z,9.40
2022-09-11T11:57:01.502Z,7.60
2022-09-11T11:59:33.743Z,6.20
2022-09-11T12:02:09.427Z,7.00
2022-09-11T12:04:50.833Z,7.00
2022-09-11T12:07:27.226Z,7.80
2022-09-11T12:09:55.272Z,7.90
2022-09-11T12:12:22.907Z,6.50
2022-09-11T12:14:51.644Z,13.80
2022-09-11T12:17:27.390Z,5.60
2022-09-11T12:20:12.028Z,4.40
2022-09-11T12:22:42.186Z,5.00
2022-09-11T12:25:20.918Z,4.40
2022-09-11T12:27:51.947Z,4.60
2022-09-11T12:30:18.719Z,4.10
2022-09-11T12:32:51.509Z,6.80
2022-09-11T12:35:46.671Z,7.30
2022-09-11T12:38:26.264Z,5.60
2022-09-11T12:40:58.309Z,5.60
2022-09-11T12:43:46.674Z,4.70
2022-09-11T12:46:22.574Z,4.60
2022-09-11T12:49:22.141Z,4.60
2022-09-11T12:51:59.665Z,4.60
2022-09-11T12:54:40.127Z,4.90
2022-09-11T12:57:09.153Z,5.10
2022-09-11T12:59:41.273Z,4.70
2022-09-11T13:02:29.105Z,4.90
2022-09-11T13:04:56.444Z,4.80
2022-09-11T13:07:30.535Z,4.90
2022-09-11T13:09:57.376Z,5.10
2022-09-11T13:12:24.104Z,5.30
2022-09-11T13:14:56.332Z,5.70
2022-09-11T13:17:30.272Z,5.50
2022-09-11T13:20:18.330Z,5.20
2022-09-11T13:22:47.599Z,4.60
2022-09-11T13:25:22.685Z,4.90
2022-09-11T13:27:56.143Z,5.60
2022-09-11T13:30:24.134Z,4.80
2022-09-11T13:33:05.412Z,5.10
2022-09-11T13:35:32.600Z,5.20
2022-09-11T13:38:07.554Z,5.20
2022-09-11T13:40:41.500Z,4.60
2022-09-11T13:43:08.331Z,4.80
2022-09-11T13:45:35.303Z,4.80
2022-09-11T13:48:02.439Z,4.00
2022-09-11T13:50:29.280Z,4.50
2022-09-11T13:52:56.197Z,4.80
2022-09-11T13:55:27.026Z,4.70
2022-09-11T13:58:00.997Z,4.50
2022-09-11T14:00:37.186Z,4.90
2022-09-11T14:03:05.626Z,4.50
2022-09-11T14:05:32.738Z,4.40
2022-09-11T14:08:22.748Z,4.80
2022-09-11T14:10:56.682Z,10.30
2022-09-11T14:13:23.689Z,7.90
2022-09-11T14:16:11.877Z,5.30
2022-09-11T14:18:46.245Z,5.10
2022-09-11T14:21:18.163Z,4.60
2022-09-11T14:23:55.231Z,4.70
2022-09-11T14:28:58.154Z,4.30
2022-09-11T14:31:32.395Z,4.60
2022-09-11T14:34:25.723Z,5.50
2022-09-11T14:36:55.662Z,4.30
2022-09-11T14:39:57.777Z,5.30
2022-09-11T14:42:27.330Z,5.40
2022-09-11T14:44:54.061Z,5.10
2022-09-11T14:47:23.627Z,5.20
2022-09-11T14:49:54.654Z,4.80
2022-09-11T14:52:26.149Z,4.90
2022-09-11T14:54:53.108Z,4.70
2022-09-11T14:57:23.027Z,4.90
2022-09-11T14:59:49.890Z,5.40
2022-09-11T15:02:21.765Z,5.60
2022-09-11T15:04:48.708Z,5.00
2022-09-11T15:07:15.948Z,6.00
2022-09-11T15:09:42.950Z,5.80
2022-09-11T15:12:10.490Z,7.40
2022-09-11T15:14:56.999Z,7.30
2022-09-11T15:17:25.514Z,7.20
2022-09-11T15:19:52.818Z,8.20
2022-09-11T15:22:19.775Z,6.90
2022-09-11T15:24:49.171Z,8.00
2022-09-11T15:27:16.035Z,7.80
2022-09-11T15:29:42.885Z,7.20
2022-09-11T15:32:10.420Z,8.00
2022-09-11T15:34:38.778Z,8.20
2022-09-11T15:37:06.060Z,8.80
2022-09-11T15:39:34.104Z,8.00
2022-09-11T15:42:02.242Z,9.00
2022-09-11T15:44:29.243Z,8.30
2022-09-11T15:46:57.097Z,8.10
2022-09-11T15:49:24.135Z,8.70
2022-09-11T15:51:51.318Z,9.90
2022-09-11T15:54:18.155Z,8.50
2022-09-11T15:56:45.231Z,11.00
2022-09-11T15:59:12.422Z,11.40
2022-09-11T16:01:39.638Z,13.00
2022-09-11T16:04:08.101Z,12.00
2022-09-11T16:06:38.724Z,13.90
2022-09-11T16:09:07.559Z,11.10
2022-09-11T16:11:34.911Z,11.00
2022-09-11T16:14:01.766Z,11.70
2022-09-11T16:16:28.743Z,12.00
2022-09-11T16:18:55.628Z,12.30
2022-09-11T16:21:23.407Z,13.70
2022-09-11T16:23:55.072Z,13.60
2022-09-11T16:26:27.012Z,14.50
2022-09-11T16:28:53.989Z,14.30
2022-09-11T16:31:20.899Z,13.60
2022-09-11T16:33:48.059Z,12.80
2022-09-11T16:36:17.479Z,13.40
2022-09-11T16:38:44.549Z,13.70
2022-09-11T16:41:16.758Z,13.50
2022-09-11T16:43:45.450Z,13.80
2022-09-11T16:46:13.774Z,14.20
2022-09-11T16:48:40.653Z,13.20
2022-09-11T16:51:07.660Z,12.40
2022-09-11T16:53:36.017Z,14.30
2022-09-11T16:56:07.138Z,13.90
2022-09-11T16:58:36.864Z,16.80
2022-09-11T17:01:08.138Z,16.20
2022-09-11T17:03:40.798Z,15.70
2022-09-11T17:06:08.466Z,15.30
2022-09-11T17:08:35.522Z,15.80
2022-09-11T17:11:02.837Z,16.50
2022-09-11T17:13:29.716Z,15.50
2022-09-11T17:16:03.781Z,15.60
2022-09-11T17:18:30.736Z,18.10
2022-09-11T17:20:58.917Z,19.30
2022-09-11T17:23:26.195Z,15.90
2022-09-11T17:25:53.248Z,16.10
2022-09-11T17:28:20.139Z,18.30
2022-09-11T17:30:46.911Z,17.40
2022-09-11T17:33:14.508Z,16.60
2022-09-11T17:35:42.177Z,16.20
2022-09-11T17:38:09.551Z,15.90
2022-09-11T17:40:36.391Z,16.50
2022-09-11T17:43:04.679Z,14.40
2022-09-11T17:45:31.927Z,12.90
2022-09-11T17:47:58.965Z,12.70
2022-09-11T17:50:25.997Z,12.50
2022-09-11T17:52:54.203Z,11.40
2022-09-11T17:55:21.612Z,11.10
2022-09-11T17:57:52.709Z,11.40
2022-09-11T18:00:19.756Z,11.70
2022-09-11T18:02:51.864Z,11.90
2022-09-11T18:05:18.699Z,12.20
2022-09-11T18:07:46.567Z,11.20
2022-09-11T18:10:13.417Z,11.70
2022-09-11T18:12:40.249Z,12.30
2022-09-11T18:15:07.908Z,12.40
2022-09-11T18:17:34.729Z,15.30
2022-09-11T18:20:03.392Z,16.40
2022-09-11T18:22:30.220Z,16.80
2022-09-11T18:24:59.858Z,18.20
2022-09-11T18:27:26.846Z,18.70
2022-09-11T18:29:54.729Z,16.10
2022-09-11T18:32:21.572Z,15.00
2022-09-11T18:34:48.662Z,17.10
2022-09-11T18:37:17.298Z,17.50
2022-09-11T18:39:44.793Z,19.60
2022-09-11T18:42:11.660Z,19.30
2022-09-11T18:44:38.673Z,19.40
2022-09-11T18:47:05.689Z,20.20
2022-09-11T18:49:32.572Z,22.30
2022-09-11T18:52:00.475Z,26.30
2022-09-11T18:54:28.372Z,28.00
2022-09-11T18:59:43.762Z,30.70
2022-09-11T19:02:10.710Z,32.40
2022-09-11T19:04:37.616Z,31.30
2022-09-11T19:07:05.180Z,32.10
2022-09-11T19:09:32.028Z,30.60
2022-09-11T19:12:00.273Z,32.30
2022-09-11T19:14:27.859Z,29.80
2022-09-11T19:16:54.748Z,31.30
2022-09-11T19:19:21.715Z,30.70
2022-09-11T19:21:48.741Z,29.90
2022-09-11T19:24:15.619Z,26.10
2022-09-11T19:26:43.664Z,24.50
2022-09-11T19:29:10.790Z,22.20
2022-09-11T19:31:39.429Z,23.50
2022-09-11T19:34:06.953Z,21.30
2022-09-11T19:36:34.783Z,21.10
2022-09-11T19:39:01.998Z,23.50
2022-09-11T19:41:31.720Z,22.80
2022-09-11T19:44:00.376Z,20.30
2022-09-11T19:46:27.809Z,17.90
2022-09-11T19:49:00.476Z,18.70
2022-09-11T19:51:31.980Z,17.90
2022-09-11T19:54:00.314Z,15.90
2022-09-11T19:56:27.647Z,15.90
2022-09-11T19:58:54.677Z,16.40
2022-09-11T20:01:23.798Z,17.50
2022-09-11T20:03:56.472Z,15.90
2022-09-11T20:06:26.119Z,14.90
2022-09-11T20:09:07.616Z,15.90
2022-09-11T20:11:40.270Z,15.30
2022-09-11T20:16:33.807Z,15.50
2022-09-11T20:19:06.241Z,14.50
2022-09-11T20:21:34.165Z,14.00
2022-09-11T20:24:01.147Z,14.90
2022-09-11T20:26:29.221Z,13.80
2022-09-11T20:28:57.856Z,14.40
2022-09-11T20:31:26.772Z,12.90
2022-09-11T20:33:53.754Z,13.70
2022-09-11T20:36:20.533Z,13.40
2022-09-11T20:38:54.278Z,13.10
2022-09-11T20:41:23.652Z,13.70
2022-09-11T20:43:50.537Z,15.30
2022-09-11T20:46:17.455Z,12.20
2022-09-11T20:48:44.263Z,13.30
2022-09-11T20:51:11.817Z,14.20
2022-09-11T20:53:39.419Z,14.10
2022-09-11T20:56:11.126Z,13.60
2022-09-11T20:58:38.392Z,15.20
2022-09-11T21:01:06.175Z,14.90
2022-09-11T21:03:33.220Z,14.90
2022-09-11T21:06:07.148Z,14.70
2022-09-11T21:08:34.219Z,14.00
2022-09-11T21:11:04.529Z,14.20
2022-09-11T21:13:34.451Z,14.00
2022-09-11T21:16:03.970Z,15.20
2022-09-11T21:18:30.672Z,13.40
2022-09-11T21:23:24.201Z,14.40
2022-09-11T21:28:19.727Z,15.00
2022-09-11T21:30:46.526Z,15.20
2022-09-11T21:33:13.291Z,15.00
2022-09-11T21:35:40.073Z,14.80
2022-09-11T21:38:06.902Z,15.30
2022-09-11T21:40:33.626Z,13.90
2022-09-11T21:43:00.396Z,15.70
2022-09-11T21:45:27.194Z,14.70
2022-09-11T21:47:54.010Z,15.20
2022-09-11T21:50:20.731Z,15.30
2022-09-11T21:52:47.530Z,14.90
2022-09-11T21:55:14.615Z,14.50
2022-09-11T21:57:41.343Z,13.80
2022-09-11T22:00:11.688Z,16.40
2022-09-11T22:02:38.499Z,15.70
2022-09-11T22:05:06.133Z,14.90
2022-09-11T22:07:32.936Z,15.20
2022-09-11T22:09:59.638Z,14.90
2022-09-11T22:12:26.376Z,16.30
2022-09-11T22:14:54.895Z,14.90
2022-09-11T22:17:22.153Z,15.00
2022-09-11T22:19:48.950Z,15.60
2022-09-11T22:22:15.987Z,14.60
2022-09-11T22:24:42.736Z,13.60
2022-09-11T22:27:09.844Z,14.20
2022-09-11T22:29:37.154Z,14.40
2022-09-11T22:32:04.766Z,13.90
2022-09-11T22:34:35.468Z,15.20
2022-09-11T22:37:02.366Z,14.70
2022-09-11T22:39:29.448Z,15.10
2022-09-11T22:41:56.217Z,14.00
2022-09-11T22:44:22.950Z,13.80
2022-09-11T22:46:49.643Z,14.10
2022-09-11T22:49:16.401Z,14.20
2022-09-11T22:51:43.157Z,13.90
2022-09-11T22:54:12.721Z,13.20
2022-09-11T22:56:39.540Z,13.70
2022-09-11T22:59:06.306Z,14.30
2022-09-11T23:01:33.085Z,13.40
2022-09-11T23:03:59.844Z,15.00
2022-09-11T23:06:45.185Z,14.60
2022-09-11T23:09:13.029Z,14.20
2022-09-11T23:11:39.905Z,15.00
2022-09-11T23:14:10.453Z,14.10
2022-09-11T23:16:40.791Z,13.10
2022-09-11T23:19:07.597Z,13.90
2022-09-11T23:21:35.545Z,13.90
2022-09-11T23:24:02.651Z,13.50
2022-09-11T23:26:29.744Z,13.20
2022-09-11T23:28:56.662Z,15.10
2022-09-11T23:31:28.893Z,12.90
2022-09-11T23:33:57.428Z,13.40
2022-09-11T23:36:24.398Z,14.20
2022-09-11T23:38:51.219Z,13.80
2022-09-11T23:41:18.168Z,14.60
2022-09-11T23:43:45.196Z,12.60
2022-09-11T23:46:12.389Z,12.50
2022-09-11T23:48:39.190Z,14.00
2022-09-11T23:51:06.134Z,13.30
2022-09-11T23:53:32.850Z,13.10
2022-09-11T23:55:59.636Z,13.80
2022-09-11T23:58:26.370Z,12.90
